Main page
METAR-TAF:

METAR-TAF

Airports :

Padre Aldamiz International Airport

Puerto Maldonado, Peru

latitude: 12-38S, longitude: 069-12W, elevation: 265 m

Current weather observation

The report was made 1 hour and 17 minutes ago, at 23:00 UTC
Wind 4 kt from the North, varying between Northwest and Northeast
Temperature 26°C
Humidity 89%
Pressure 1004 hPa
Visibility 10 km or more
Few clouds at a height of 4000 ft
thunderstorm in vicinity

METAR: SPTU 172300Z 01004KT 320V040 9999 VCTS FEW040 26/24 Q1004 RMK CB N BIRD HAZARD RWY 01/19 PP000

Time: 19:17 (00:17 UTC)

Forecast

The report was made 7 hours and 17 minutes ago, at 17:00 UTC
Forecast valid from 17 at 18 UTC to 18 at 18 UTC
Wind 5 kt from the West/Northwest
Visibility 10 km or more
Scattered clouds at a height of 2000 ft
Temporary
from 17 at 19 UTC to 17 at 23 UTC
Broken clouds at a height of 1000 ft
Scattered clouds at a height of 1200 ft, Towering cumulus.

TAF: SPTU 171700Z 1718/1818 29005KT 9999 SCT020 TX34/1720Z TN23/1811Z TEMPO 1719/1723 BKN010 SCT012TCU

Weather observations and forecasts of more than 4000 airports (METAR and TAF reports).

The available stations are represented by yellow and red dots on the map.

Hover mouse over dot to see the name of the station.

Then click to see weather observations and forecasts.

To change the map : click on the green buttons with a black cross to zoom in, on the green button with a dash to zoom out, or on the green arrows for adjacent maps.


METAR-TAF: